createdAt,value
2023-04-24T00:01:46.195Z,1.30
2023-04-24T00:04:15.447Z,1.30
2023-04-24T00:06:43.752Z,1.35
2023-04-24T00:09:11.046Z,1.40
2023-04-24T00:11:37.830Z,1.15
2023-04-24T00:14:04.492Z,1.30
2023-04-24T00:16:31.076Z,1.52
2023-04-24T00:18:57.668Z,1.55
2023-04-24T00:21:26.838Z,1.50
2023-04-24T00:23:54.018Z,1.55
2023-04-24T00:26:20.667Z,1.60
2023-04-24T00:28:47.292Z,1.35
2023-04-24T00:31:13.869Z,1.10
2023-04-24T00:33:41.016Z,1.25
2023-04-24T00:36:08.066Z,1.05
2023-04-24T00:38:34.709Z,1.30
2023-04-24T00:41:01.345Z,0.90
2023-04-24T00:43:27.920Z,1.00
2023-04-24T00:45:55.014Z,1.58
2023-04-24T00:48:21.641Z,1.20
2023-04-24T00:50:48.220Z,1.20
2023-04-24T00:53:14.807Z,0.98
2023-04-24T00:55:41.909Z,1.08
2023-04-24T00:58:08.666Z,1.00
2023-04-24T01:00:35.531Z,1.08
2023-04-24T01:03:03.046Z,1.20
2023-04-24T01:05:29.763Z,1.50
2023-04-24T01:07:56.756Z,1.30
2023-04-24T01:10:23.963Z,1.20
2023-04-24T01:12:51.299Z,1.10
2023-04-24T01:15:18.089Z,1.02
2023-04-24T01:17:44.686Z,0.80
2023-04-24T01:20:11.770Z,0.93
2023-04-24T01:22:38.391Z,0.80
2023-04-24T01:25:06.275Z,0.85
2023-04-24T01:27:32.910Z,0.85
2023-04-24T01:29:59.582Z,0.80
2023-04-24T01:32:26.556Z,0.60
2023-04-24T01:34:54.378Z,0.73
2023-04-24T01:37:20.919Z,1.00
2023-04-24T01:39:47.602Z,0.80
2023-04-24T01:42:14.473Z,0.93
2023-04-24T01:44:41.613Z,1.00
2023-04-24T01:47:08.413Z,0.80
2023-04-24T01:49:35.464Z,0.95
2023-04-24T01:52:02.066Z,0.80
2023-04-24T01:54:28.624Z,0.85
2023-04-24T01:56:55.299Z,0.90
2023-04-24T01:59:22.282Z,0.70
2023-04-24T02:01:48.968Z,0.80
2023-04-24T02:04:16.507Z,0.90
2023-04-24T02:06:43.402Z,0.90
2023-04-24T02:09:10.114Z,0.80
2023-04-24T02:11:36.663Z,0.93
2023-04-24T02:14:03.321Z,1.00
2023-04-24T02:16:34.112Z,0.88
2023-04-24T02:19:00.997Z,1.00
2023-04-24T02:21:28.468Z,1.10
2023-04-24T02:23:58.586Z,0.90
2023-04-24T02:26:25.226Z,1.05
2023-04-24T02:28:52.017Z,0.80
2023-04-24T02:31:18.557Z,1.10
2023-04-24T02:33:45.174Z,1.20
2023-04-24T02:36:11.772Z,1.10
2023-04-24T02:38:38.323Z,1.00
2023-04-24T02:41:07.283Z,1.10
2023-04-24T02:43:34.480Z,1.08
2023-04-24T02:46:01.225Z,1.30
2023-04-24T02:48:28.041Z,1.50
2023-04-24T02:50:55.515Z,1.20
2023-04-24T02:53:22.105Z,1.00
2023-04-24T02:55:48.649Z,1.08
2023-04-24T02:58:15.321Z,1.30
2023-04-24T03:00:41.923Z,1.50
2023-04-24T03:03:08.608Z,1.48
2023-04-24T03:05:35.361Z,1.20
2023-04-24T03:08:01.899Z,1.67
2023-04-24T03:10:28.498Z,1.50
2023-04-24T03:12:56.090Z,1.30
2023-04-24T03:15:22.790Z,1.60
2023-04-24T03:17:49.380Z,1.52
2023-04-24T03:20:16.543Z,1.27
2023-04-24T03:22:43.151Z,1.50
2023-04-24T03:25:10.493Z,1.80
2023-04-24T03:27:37.294Z,1.70
2023-04-24T03:30:04.385Z,1.90
2023-04-24T03:32:33.273Z,2.05
2023-04-24T03:35:01.436Z,2.08
2023-04-24T03:37:28.014Z,2.40
2023-04-24T03:39:54.593Z,1.90
2023-04-24T03:42:21.145Z,2.60
2023-04-24T03:44:48.074Z,2.35
2023-04-24T03:47:14.829Z,2.30
2023-04-24T03:49:41.528Z,2.22
2023-04-24T03:52:08.306Z,2.10
2023-04-24T03:54:35.218Z,2.20
2023-04-24T03:57:02.470Z,2.28
2023-04-24T03:59:29.070Z,1.90
2023-04-24T04:01:55.973Z,2.10
2023-04-24T04:04:22.646Z,2.13
2023-04-24T04:06:50.065Z,2.10
2023-04-24T04:09:16.874Z,2.30
2023-04-24T04:11:43.428Z,2.30
2023-04-24T04:14:10.049Z,2.65
2023-04-24T04:16:37.549Z,2.78
2023-04-24T04:19:04.573Z,2.97
2023-04-24T04:21:32.381Z,2.70
2023-04-24T04:23:59.017Z,2.40
2023-04-24T04:26:26.605Z,2.58
2023-04-24T04:28:53.568Z,2.67
2023-04-24T04:31:24.359Z,2.72
2023-04-24T04:33:50.985Z,2.63
2023-04-24T04:36:18.352Z,2.67
2023-04-24T04:38:45.729Z,2.47
2023-04-24T04:41:12.277Z,3.10
2023-04-24T04:43:40.673Z,3.10
2023-04-24T04:46:09.197Z,3.17
2023-04-24T04:51:02.892Z,3.30
2023-04-24T04:53:29.478Z,3.60
2023-04-24T04:55:57.037Z,4.82
2023-04-24T04:58:23.676Z,5.63
2023-04-24T05:00:50.483Z,5.60
2023-04-24T05:03:21.227Z,6.90
2023-04-24T05:05:48.478Z,7.55
2023-04-24T05:10:44.522Z,8.95
2023-04-24T05:13:11.113Z,9.00
2023-04-24T05:15:37.734Z,9.30
2023-04-24T05:18:04.798Z,9.90
2023-04-24T05:20:31.459Z,9.93
2023-04-24T05:22:58.079Z,10.70
2023-04-24T05:25:24.681Z,9.25
2023-04-24T05:27:51.244Z,9.10
2023-04-24T05:30:17.836Z,9.10
2023-04-24T05:32:44.446Z,9.30
2023-04-24T05:35:11.191Z,10.00
2023-04-24T05:37:37.810Z,8.65
2023-04-24T05:40:06.523Z,9.30
2023-04-24T05:42:33.312Z,8.60
2023-04-24T05:44:59.967Z,9.73
2023-04-24T05:47:27.451Z,9.82
2023-04-24T05:49:54.483Z,9.00
2023-04-24T05:52:21.256Z,9.48
2023-04-24T05:54:47.941Z,9.30
2023-04-24T05:57:14.776Z,9.35
2023-04-24T05:59:42.019Z,9.02
2023-04-24T06:02:09.022Z,9.63
2023-04-24T06:04:36.103Z,9.50
2023-04-24T06:07:02.885Z,10.43
2023-04-24T06:09:29.560Z,9.90
2023-04-24T06:11:57.595Z,8.93
2023-04-24T06:14:24.197Z,10.23
2023-04-24T06:16:50.898Z,9.40
2023-04-24T06:19:17.519Z,11.57
2023-04-24T06:21:44.210Z,9.80
2023-04-24T06:24:10.931Z,9.82
2023-04-24T06:26:37.606Z,10.27
2023-04-24T06:29:04.204Z,8.68
2023-04-24T06:31:31.004Z,9.55
2023-04-24T06:33:57.751Z,10.95
2023-04-24T06:36:24.321Z,10.40
2023-04-24T06:38:51.041Z,10.35
2023-04-24T06:41:17.752Z,10.32
2023-04-24T06:43:44.781Z,10.93
2023-04-24T06:46:11.398Z,9.43
2023-04-24T06:48:38.017Z,9.55
2023-04-24T06:51:04.565Z,9.93
2023-04-24T06:53:31.192Z,9.88
2023-04-24T06:55:57.866Z,10.45
2023-04-24T06:58:26.226Z,10.10
2023-04-24T07:00:52.822Z,10.00
2023-04-24T07:03:19.534Z,10.25
2023-04-24T07:05:47.337Z,9.88
2023-04-24T07:08:14.759Z,9.68
2023-04-24T07:10:41.298Z,9.45
2023-04-24T07:13:08.232Z,9.55
2023-04-24T07:15:35.337Z,9.15
2023-04-24T07:18:05.372Z,9.57
2023-04-24T07:20:32.832Z,9.80
2023-04-24T07:22:59.548Z,10.10
2023-04-24T07:25:27.122Z,9.23
2023-04-24T07:27:54.781Z,9.13
2023-04-24T07:30:21.629Z,8.55
2023-04-24T07:32:48.614Z,9.40
2023-04-24T07:35:15.855Z,8.95
2023-04-24T07:37:46.792Z,8.77
2023-04-24T07:40:14.588Z,9.27
2023-04-24T07:42:41.562Z,9.57
2023-04-24T07:45:08.389Z,9.73
2023-04-24T07:47:35.989Z,8.38
2023-04-24T07:50:04.239Z,8.50
2023-04-24T07:52:31.431Z,8.82
2023-04-24T07:54:59.553Z,8.98
2023-04-24T07:57:26.500Z,7.28
2023-04-24T07:59:53.127Z,7.68
2023-04-24T08:02:19.706Z,7.85
2023-04-24T08:04:46.565Z,8.07
2023-04-24T08:07:14.042Z,7.25
2023-04-24T08:09:40.619Z,7.20
2023-04-24T08:12:07.294Z,7.43
2023-04-24T08:14:33.953Z,6.80
2023-04-24T08:17:01.635Z,6.80
2023-04-24T08:19:28.200Z,7.28
2023-04-24T08:21:54.777Z,7.22
2023-04-24T08:24:23.013Z,7.00
2023-04-24T08:26:51.357Z,7.00
2023-04-24T08:29:18.211Z,7.63
2023-04-24T08:31:44.789Z,7.20
2023-04-24T08:34:11.686Z,6.22
2023-04-24T08:36:46.694Z,6.18
2023-04-24T08:39:14.541Z,6.05
2023-04-24T08:41:44.218Z,5.75
2023-04-24T08:44:12.011Z,5.60
2023-04-24T08:46:38.922Z,4.88
2023-04-24T08:49:06.059Z,5.15
2023-04-24T08:51:32.712Z,4.90
2023-04-24T08:53:59.495Z,4.38
2023-04-24T08:56:26.260Z,4.60
2023-04-24T08:58:54.631Z,5.07
2023-04-24T09:01:21.679Z,4.13
2023-04-24T09:03:50.955Z,4.63
2023-04-24T09:06:19.160Z,4.25
2023-04-24T09:08:46.612Z,3.90
2023-04-24T09:11:13.229Z,3.72
2023-04-24T09:13:40.046Z,4.03
2023-04-24T09:16:06.659Z,4.85
2023-04-24T09:18:33.821Z,3.78
2023-04-24T09:21:10.330Z,4.38
2023-04-24T09:23:37.043Z,3.35
2023-04-24T09:26:06.114Z,3.50
2023-04-24T09:28:39.182Z,3.40
2023-04-24T09:31:17.798Z,3.30
2023-04-24T09:34:01.795Z,3.47
2023-04-24T09:36:47.208Z,3.53
2023-04-24T09:39:18.745Z,3.55
2023-04-24T09:41:48.397Z,3.60
2023-04-24T09:44:22.292Z,3.63
2023-04-24T09:46:54.340Z,3.72
2023-04-24T09:49:26.043Z,3.30
2023-04-24T09:51:53.048Z,3.55
2023-04-24T09:54:22.154Z,3.35
2023-04-24T09:56:51.250Z,3.53
2023-04-24T09:59:19.869Z,3.63
2023-04-24T10:01:46.881Z,3.72
2023-04-24T10:04:22.095Z,3.72
2023-04-24T10:06:52.745Z,3.95
2023-04-24T10:09:20.820Z,3.53
2023-04-24T10:11:49.867Z,3.72
2023-04-24T10:14:24.504Z,3.83
2023-04-24T10:16:54.781Z,3.85
2023-04-24T10:19:21.620Z,2.90
2023-04-24T10:21:48.478Z,3.08
2023-04-24T10:24:16.704Z,2.75
2023-04-24T10:26:44.099Z,3.03
2023-04-24T10:29:13.622Z,2.97
2023-04-24T10:31:41.465Z,3.17
2023-04-24T10:34:09.746Z,2.70
2023-04-24T10:36:38.914Z,2.95
2023-04-24T10:39:09.017Z,3.60
2023-04-24T10:41:38.286Z,3.60
2023-04-24T10:44:06.928Z,3.17
2023-04-24T10:46:33.649Z,3.40
2023-04-24T10:49:00.370Z,3.80
2023-04-24T10:51:51.500Z,4.05
2023-04-24T10:54:37.940Z,3.60
2023-04-24T10:57:23.517Z,3.50
2023-04-24T10:59:52.940Z,3.83
2023-04-24T11:02:21.233Z,3.63
2023-04-24T11:04:52.279Z,4.25
2023-04-24T11:07:22.120Z,3.90
2023-04-24T11:12:15.427Z,3.53
2023-04-24T11:14:58.042Z,3.63
2023-04-24T11:17:43.493Z,3.80
2023-04-24T11:20:26.808Z,3.83
2023-04-24T11:22:56.149Z,4.10
2023-04-24T11:25:26.814Z,3.50
2023-04-24T11:28:04.777Z,4.38
2023-04-24T11:30:32.452Z,4.30
2023-04-24T11:33:04.251Z,4.22
2023-04-24T11:35:31.713Z,4.50
2023-04-24T11:40:28.995Z,2.78
2023-04-24T11:43:00.405Z,2.88
2023-04-24T11:45:32.717Z,2.50
2023-04-24T11:48:00.045Z,2.50
2023-04-24T11:50:28.902Z,2.53
2023-04-24T11:52:56.551Z,1.95
2023-04-24T11:55:23.775Z,1.80
2023-04-24T11:57:52.431Z,1.52
2023-04-24T12:00:21.543Z,1.42
2023-04-24T12:02:48.672Z,1.65
2023-04-24T12:05:28.885Z,1.27
2023-04-24T12:07:55.750Z,1.25
2023-04-24T12:10:23.928Z,1.33
2023-04-24T12:12:52.307Z,1.80
2023-04-24T12:17:46.417Z,2.05
2023-04-24T12:20:14.190Z,2.30
2023-04-24T12:23:00.150Z,2.97
2023-04-24T12:25:28.399Z,3.28
2023-04-24T12:28:04.153Z,4.40
2023-04-24T12:30:35.837Z,5.07
2023-04-24T12:33:03.646Z,5.22
2023-04-24T12:35:32.826Z,5.40
2023-04-24T12:38:14.197Z,5.40
2023-04-24T12:40:45.329Z,5.68
2023-04-24T12:43:18.733Z,5.80
2023-04-24T12:45:48.576Z,5.50
2023-04-24T12:48:15.687Z,5.93
2023-04-24T12:50:47.230Z,5.40
2023-04-24T12:53:14.979Z,5.90
2023-04-24T12:55:41.617Z,6.78
2023-04-24T12:58:09.003Z,6.25
2023-04-24T13:00:35.861Z,6.35
2023-04-24T13:03:02.968Z,5.50
2023-04-24T13:05:29.964Z,4.40
2023-04-24T13:07:56.533Z,4.25
2023-04-24T13:10:23.128Z,4.38
2023-04-24T13:12:49.903Z,4.60
2023-04-24T13:15:16.489Z,4.00
2023-04-24T13:17:43.115Z,4.05
2023-04-24T13:20:09.895Z,4.63
2023-04-24T13:22:37.646Z,3.47
2023-04-24T13:25:04.665Z,5.10
2023-04-24T13:27:31.330Z,4.00
2023-04-24T13:29:57.907Z,4.10
2023-04-24T13:32:24.499Z,4.80
2023-04-24T13:34:51.094Z,4.72
2023-04-24T13:37:17.679Z,4.20
2023-04-24T13:39:44.297Z,4.95
2023-04-24T13:42:10.921Z,4.70
2023-04-24T13:44:37.549Z,4.90
2023-04-24T13:47:04.152Z,5.40
2023-04-24T13:49:31.020Z,5.88
2023-04-24T13:51:57.733Z,5.10
2023-04-24T13:54:26.780Z,5.05
2023-04-24T13:56:53.703Z,5.18
2023-04-24T13:59:22.348Z,5.63
2023-04-24T14:01:49.359Z,5.55
2023-04-24T14:04:16.715Z,6.18
2023-04-24T14:06:44.135Z,6.40
2023-04-24T14:09:10.712Z,5.32
2023-04-24T14:11:37.354Z,5.32
2023-04-24T14:14:04.285Z,5.63
2023-04-24T14:16:31.756Z,5.35
2023-04-24T14:18:58.616Z,5.13
2023-04-24T14:21:25.391Z,5.40
2023-04-24T14:23:52.033Z,5.45
2023-04-24T14:26:18.706Z,6.07
2023-04-24T14:28:45.278Z,5.82
2023-04-24T14:31:12.374Z,5.85
2023-04-24T14:33:39.019Z,5.88
2023-04-24T14:36:06.749Z,4.82
2023-04-24T14:38:33.685Z,5.32
2023-04-24T14:41:06.808Z,4.68
2023-04-24T14:43:36.366Z,4.35
2023-04-24T14:46:04.128Z,3.53
2023-04-24T14:48:31.159Z,3.38
2023-04-24T14:50:57.834Z,3.50
2023-04-24T14:53:24.586Z,3.20
2023-04-24T14:55:51.279Z,3.00
2023-04-24T14:58:17.912Z,3.40
2023-04-24T15:00:44.645Z,2.90
2023-04-24T15:03:11.602Z,2.78
2023-04-24T15:05:38.634Z,2.70
2023-04-24T15:08:05.875Z,2.92
2023-04-24T15:10:32.487Z,3.53
2023-04-24T15:12:59.085Z,3.30
2023-04-24T15:15:25.943Z,3.67
2023-04-24T15:17:52.543Z,3.63
2023-04-24T15:20:19.296Z,3.97
2023-04-24T15:22:45.984Z,3.38
2023-04-24T15:25:12.725Z,3.40
2023-04-24T15:27:46.686Z,3.35
2023-04-24T15:30:14.361Z,2.80
2023-04-24T15:32:41.446Z,2.85
2023-04-24T15:35:10.215Z,3.25
2023-04-24T15:37:38.184Z,3.25
2023-04-24T15:40:08.293Z,3.10
2023-04-24T15:42:36.013Z,2.72
2023-04-24T15:45:02.829Z,2.90
2023-04-24T15:47:29.498Z,2.95
2023-04-24T15:49:56.218Z,3.08
2023-04-24T15:52:22.878Z,3.33
2023-04-24T15:54:49.560Z,3.15
2023-04-24T15:57:16.454Z,3.53
2023-04-24T15:59:43.333Z,3.03
2023-04-24T16:02:12.128Z,4.28
2023-04-24T16:04:39.158Z,2.95
2023-04-24T16:07:05.981Z,2.45
2023-04-24T16:09:32.576Z,2.33
2023-04-24T16:11:59.203Z,2.78
2023-04-24T16:14:26.191Z,1.77
2023-04-24T16:16:52.779Z,2.35
2023-04-24T16:19:19.371Z,1.73
2023-04-24T16:21:45.948Z,1.50
2023-04-24T16:24:12.546Z,2.15
2023-04-24T16:26:39.771Z,1.60
2023-04-24T16:29:06.420Z,1.58
2023-04-24T16:31:33.576Z,1.63
2023-04-24T16:34:00.390Z,1.52
2023-04-24T16:36:27.063Z,1.73
2023-04-24T16:38:53.710Z,1.70
2023-04-24T16:41:20.427Z,2.05
2023-04-24T16:43:47.054Z,1.65
2023-04-24T16:46:13.644Z,1.98
2023-04-24T16:48:40.248Z,1.77
2023-04-24T16:51:06.813Z,2.45
2023-04-24T16:53:33.404Z,1.50
2023-04-24T16:55:59.957Z,1.60
2023-04-24T16:58:27.429Z,1.88
2023-04-24T17:00:54.077Z,1.85
2023-04-24T17:03:20.990Z,1.42
2023-04-24T17:05:47.903Z,1.55
2023-04-24T17:08:14.572Z,1.50
2023-04-24T17:10:41.323Z,1.70
2023-04-24T17:13:08.707Z,1.63
2023-04-24T17:15:35.762Z,2.40
2023-04-24T17:18:02.816Z,1.92
2023-04-24T17:20:30.314Z,1.63
2023-04-24T17:22:57.290Z,1.30
2023-04-24T17:25:23.929Z,1.58
2023-04-24T17:27:50.567Z,2.20
2023-04-24T17:30:17.980Z,1.70
2023-04-24T17:32:44.927Z,2.00
2023-04-24T17:35:11.830Z,1.65
2023-04-24T17:37:38.753Z,2.05
2023-04-24T17:40:06.167Z,2.03
2023-04-24T17:42:34.410Z,1.67
2023-04-24T17:45:01.363Z,1.70
2023-04-24T17:47:30.651Z,1.73
2023-04-24T17:49:57.254Z,1.80
2023-04-24T17:52:23.911Z,1.83
2023-04-24T17:54:50.547Z,2.13
2023-04-24T17:57:17.130Z,2.20
2023-04-24T17:59:43.756Z,2.00
2023-04-24T18:02:10.561Z,2.40
2023-04-24T18:04:39.417Z,2.00
2023-04-24T18:07:06.059Z,2.65
2023-04-24T18:09:32.775Z,2.08
2023-04-24T18:11:59.377Z,2.63
2023-04-24T18:14:27.055Z,2.28
2023-04-24T18:16:53.672Z,2.40
2023-04-24T18:19:20.309Z,2.28
2023-04-24T18:21:46.922Z,2.00
2023-04-24T18:24:13.562Z,2.80
2023-04-24T18:26:40.185Z,2.60
2023-04-24T18:29:06.971Z,2.45
2023-04-24T18:31:33.742Z,2.25
2023-04-24T18:34:00.473Z,2.38
2023-04-24T18:36:27.077Z,1.92
2023-04-24T18:38:53.655Z,2.20
2023-04-24T18:41:20.295Z,2.80
2023-04-24T18:43:47.798Z,2.80
2023-04-24T18:46:15.175Z,2.33
2023-04-24T18:48:41.794Z,2.22
2023-04-24T18:51:08.926Z,2.63
2023-04-24T18:53:36.136Z,2.00
2023-04-24T18:56:02.714Z,2.70
2023-04-24T18:58:29.287Z,2.40
2023-04-24T19:00:56.014Z,2.78
2023-04-24T19:03:22.919Z,2.50
2023-04-24T19:05:49.746Z,2.42
2023-04-24T19:08:16.391Z,2.20
2023-04-24T19:10:42.971Z,2.65
2023-04-24T19:13:09.581Z,3.10
2023-04-24T19:15:36.254Z,3.10
2023-04-24T19:18:02.895Z,2.10
2023-04-24T19:20:29.808Z,2.92
2023-04-24T19:22:56.721Z,2.40
2023-04-24T19:25:23.311Z,3.17
2023-04-24T19:27:49.876Z,3.28
2023-04-24T19:30:16.535Z,3.17
2023-04-24T19:32:43.248Z,3.33
2023-04-24T19:35:09.986Z,2.42
2023-04-24T19:37:36.727Z,3.10
2023-04-24T19:40:03.759Z,3.13
2023-04-24T19:42:42.497Z,3.10
2023-04-24T19:45:12.066Z,3.58
2023-04-24T19:50:06.203Z,2.70
2023-04-24T19:52:32.820Z,3.08
2023-04-24T19:54:59.590Z,2.92
2023-04-24T19:57:26.352Z,3.13
2023-04-24T19:59:53.019Z,3.03
2023-04-24T20:02:19.723Z,3.47
2023-04-24T20:04:46.720Z,2.92
2023-04-24T20:07:13.632Z,3.20
2023-04-24T20:09:40.256Z,2.95
2023-04-24T20:12:07.200Z,3.17
2023-04-24T20:14:33.780Z,2.95
2023-04-24T20:17:00.472Z,3.00
2023-04-24T20:19:27.246Z,2.63
2023-04-24T20:21:54.223Z,3.13
2023-04-24T20:24:20.972Z,2.97
2023-04-24T20:26:47.658Z,3.38
2023-04-24T20:29:14.316Z,3.15
2023-04-24T20:31:41.652Z,3.17
2023-04-24T20:34:08.394Z,3.45
2023-04-24T20:36:35.226Z,3.33
2023-04-24T20:39:02.382Z,3.28
2023-04-24T20:41:30.338Z,3.63
2023-04-24T20:43:56.992Z,3.40
2023-04-24T20:46:23.718Z,3.38
2023-04-24T20:48:50.900Z,3.80
2023-04-24T20:51:19.616Z,3.03
2023-04-24T20:53:46.447Z,3.13
2023-04-24T20:56:13.079Z,3.45
2023-04-24T20:58:39.961Z,4.18
2023-04-24T21:01:06.825Z,3.75
2023-04-24T21:03:33.651Z,3.58
2023-04-24T21:06:00.515Z,4.72
2023-04-24T21:08:27.111Z,3.83
2023-04-24T21:10:53.694Z,3.95
2023-04-24T21:13:20.347Z,3.33
2023-04-24T21:15:47.022Z,3.72
2023-04-24T21:18:13.835Z,4.20
2023-04-24T21:20:40.612Z,3.35
2023-04-24T21:23:07.252Z,4.20
2023-04-24T21:25:34.958Z,3.97
2023-04-24T21:28:01.700Z,3.92
2023-04-24T21:30:29.047Z,3.85
2023-04-24T21:32:57.116Z,3.57
2023-04-24T21:35:23.776Z,3.65
2023-04-24T21:37:50.369Z,3.35
2023-04-24T21:40:17.064Z,3.53
2023-04-24T21:42:43.705Z,3.90
2023-04-24T21:45:10.794Z,3.88
2023-04-24T21:47:37.473Z,3.88
2023-04-24T21:50:05.242Z,3.83
2023-04-24T21:52:31.913Z,4.05
2023-04-24T21:54:58.527Z,3.80
2023-04-24T21:57:25.281Z,3.88
2023-04-24T21:59:52.531Z,4.25
2023-04-24T22:02:19.371Z,4.25
2023-04-24T22:04:46.277Z,3.25
2023-04-24T22:07:12.983Z,4.20
2023-04-24T22:09:39.615Z,4.35
2023-04-24T22:12:06.716Z,4.53
2023-04-24T22:14:33.309Z,3.97
2023-04-24T22:16:59.929Z,4.10
2023-04-24T22:19:28.284Z,5.18
2023-04-24T22:21:55.028Z,3.90
2023-04-24T22:24:21.655Z,5.05
2023-04-24T22:26:48.406Z,3.88
2023-04-24T22:29:15.359Z,3.30
2023-04-24T22:31:42.339Z,4.07
2023-04-24T22:34:09.142Z,3.22
2023-04-24T22:36:35.770Z,4.63
2023-04-24T22:39:02.653Z,4.25
2023-04-24T22:41:29.284Z,4.10
2023-04-24T22:43:56.100Z,3.97
2023-04-24T22:46:25.011Z,4.30
2023-04-24T22:48:51.750Z,4.05
2023-04-24T22:51:18.910Z,5.60
2023-04-24T22:53:46.130Z,4.82
2023-04-24T22:56:12.806Z,5.20
2023-04-24T22:58:39.414Z,5.38
2023-04-24T23:01:06.389Z,5.43
2023-04-24T23:03:33.658Z,4.07
2023-04-24T23:06:00.481Z,4.93
2023-04-24T23:08:27.515Z,5.13
2023-04-24T23:10:54.140Z,5.22
2023-04-24T23:13:20.725Z,4.70
2023-04-24T23:15:47.321Z,4.80
2023-04-24T23:18:13.950Z,4.63
2023-04-24T23:20:40.628Z,5.60
2023-04-24T23:23:07.257Z,5.63
2023-04-24T23:25:33.937Z,4.95
2023-04-24T23:28:00.651Z,5.05
2023-04-24T23:30:27.449Z,4.80
2023-04-24T23:32:54.104Z,5.30
2023-04-24T23:35:20.980Z,4.80
2023-04-24T23:37:48.285Z,4.85
2023-04-24T23:40:14.893Z,5.43
2023-04-24T23:42:41.465Z,4.78
2023-04-24T23:45:10.593Z,4.97
2023-04-24T23:47:37.766Z,5.25
2023-04-24T23:50:04.810Z,4.63
2023-04-24T23:52:31.532Z,4.82
2023-04-24T23:54:58.179Z,4.70
2023-04-24T23:57:24.806Z,4.88
2023-04-24T23:59:51.363Z,5.70
